Linwood Park, Ohio
Current Conditions -  °F | °C
As of 2:53 PM on Sunday 23 Nov 2014 (Local Time) from KLPR Reporting Station
Few Clouds Few Clouds  
Wind Chill: 56°   Ceiling: Unl
Heat Index: 56°   Visibility: 10mi
Dew Point: 42°   Wind: 17mph
Humidity: 60%   Direction: 150°SSE
Pressure: 29.79"   Gusts: NA
Location:  41.3884°N, 82.3643°W
Report Text: KLPR 231953Z AUTO 15015KT 10SM FEW041 13/06 A2979 RMK AO2 SLP089 T01330056 TSNO
Loading
Personal Weather Stations






























Interactive Weather Map New forecast layout! Learn more

10-Day Weather Forecast

Advertisements
Track Severe Weather on mobile